Saltsburg, Pennsylvania
Current Conditions -  °F | °C
As of 9:55 AM on Wednesday 22 Oct 2014 (Local Time) from KIDI Reporting Station
Overcast Overcast  
Wind Chill: 42°   Ceiling: 1000
Heat Index: 46°   Visibility: 10mi
Dew Point: 43°   Wind: 8mph
Humidity: 87%   Direction: 360°N
Pressure: 30.15"   Gusts: NA
Location:  40.49°N, 79.45°W
Report Text: KIDI 221355Z AUTO 36007KT 10SM OVC010 08/06 A3015 RMK A01
Loading
Personal Weather Stations






























Interactive Weather Map
Tropical Storm Tracking
New forecast layout! Learn more

10-Day Weather Forecast

Advertisements
Track Severe Weather on mobile